createdAt,value
2023-05-22T00:03:16.132Z,8.32
2023-05-22T00:07:34.255Z,8.32
2023-05-22T00:11:53.074Z,8.36
2023-05-22T00:16:11.211Z,8.43
2023-05-22T00:20:29.008Z,8.67
2023-05-22T00:24:46.551Z,8.91
2023-05-22T00:29:06.664Z,9.24
2023-05-22T00:33:25.272Z,9.22
2023-05-22T00:37:42.859Z,9.33
2023-05-22T00:42:01.092Z,9.40
2023-05-22T00:46:23.149Z,9.33
2023-05-22T00:50:43.181Z,9.42
2023-05-22T00:55:01.120Z,9.42
2023-05-22T00:59:20.851Z,9.33
2023-05-22T01:03:45.136Z,9.24
2023-05-22T01:08:05.864Z,9.36
2023-05-22T01:12:58.499Z,9.39
2023-05-22T01:17:49.149Z,9.16
2023-05-22T01:23:13.025Z,9.08
2023-05-22T01:28:08.597Z,9.02
2023-05-22T01:32:29.210Z,8.89
2023-05-22T01:36:49.229Z,8.84
2023-05-22T01:41:06.819Z,8.92
2023-05-22T01:45:25.089Z,8.92
2023-05-22T01:49:43.080Z,8.83
2023-05-22T01:54:13.444Z,8.79
2023-05-22T01:59:13.266Z,8.83
2023-05-22T02:03:33.458Z,8.88
2023-05-22T02:07:52.037Z,8.92
2023-05-22T02:12:10.297Z,8.88
2023-05-22T02:16:30.457Z,8.72
2023-05-22T02:20:49.919Z,8.77
2023-05-22T02:25:11.890Z,8.88
2023-05-22T02:29:37.123Z,8.91
2023-05-22T02:33:54.723Z,8.85
2023-05-22T02:38:13.843Z,8.83
2023-05-22T02:42:32.430Z,8.81
2023-05-22T02:46:51.616Z,8.88
2023-05-22T02:51:09.370Z,8.83
2023-05-22T02:55:27.202Z,8.77
2023-05-22T02:59:46.087Z,8.87
2023-05-22T03:04:04.832Z,8.89
2023-05-22T03:08:23.620Z,8.98
2023-05-22T03:12:41.707Z,9.01
2023-05-22T03:17:00.244Z,8.96
2023-05-22T03:21:17.875Z,9.09
2023-05-22T03:25:35.915Z,9.22
2023-05-22T03:29:53.596Z,9.34
2023-05-22T03:34:12.322Z,9.46
2023-05-22T03:38:29.871Z,9.53
2023-05-22T03:42:47.514Z,9.71
2023-05-22T03:47:05.664Z,9.85
2023-05-22T03:51:23.713Z,9.92
2023-05-22T03:55:41.672Z,10.09
2023-05-22T04:00:06.647Z,10.23
2023-05-22T04:04:27.351Z,10.48
2023-05-22T04:08:44.945Z,10.59
2023-05-22T04:13:02.954Z,10.77
2023-05-22T04:17:20.464Z,10.94
2023-05-22T04:21:38.538Z,11.09
2023-05-22T04:25:56.116Z,11.33
2023-05-22T04:30:17.709Z,11.56
2023-05-22T04:34:39.053Z,11.70
2023-05-22T04:38:56.608Z,11.88
2023-05-22T04:43:14.865Z,12.15
2023-05-22T04:47:33.396Z,12.39
2023-05-22T04:51:52.596Z,12.54
2023-05-22T04:56:11.857Z,12.77
2023-05-22T05:00:32.638Z,13.01
2023-05-22T05:04:50.428Z,13.26
2023-05-22T05:09:08.819Z,13.46
2023-05-22T05:13:26.433Z,13.71
2023-05-22T05:17:45.694Z,13.98
2023-05-22T05:22:03.573Z,14.25
2023-05-22T05:26:23.010Z,14.50
2023-05-22T05:30:42.048Z,14.84
2023-05-22T05:35:01.097Z,15.12
2023-05-22T05:39:19.524Z,15.39
2023-05-22T05:43:37.388Z,15.59
2023-05-22T05:47:56.224Z,15.81
2023-05-22T05:52:13.929Z,15.95
2023-05-22T05:56:32.311Z,16.25
2023-05-22T06:00:49.881Z,16.56
2023-05-22T06:05:10.571Z,16.86
2023-05-22T06:09:28.321Z,17.04
2023-05-22T06:13:45.959Z,17.22
2023-05-22T06:18:04.133Z,17.28
2023-05-22T06:22:22.288Z,17.00
2023-05-22T06:26:39.813Z,16.93
2023-05-22T06:30:59.304Z,17.38
2023-05-22T06:35:16.397Z,17.73
2023-05-22T06:39:34.840Z,18.02
2023-05-22T06:43:53.782Z,18.29
2023-05-22T06:48:12.969Z,18.56
2023-05-22T06:52:32.032Z,18.87
2023-05-22T06:56:50.986Z,19.17
2023-05-22T07:01:09.360Z,19.44
2023-05-22T07:05:27.826Z,19.69
2023-05-22T07:09:45.408Z,19.67
2023-05-22T07:14:03.839Z,19.52
2023-05-22T07:18:21.421Z,19.59
2023-05-22T07:22:40.399Z,19.65
2023-05-22T07:26:58.423Z,20.01
2023-05-22T07:31:16.572Z,20.14
2023-05-22T07:35:35.789Z,20.32
2023-05-22T07:39:53.406Z,20.16
2023-05-22T07:44:11.629Z,20.65
2023-05-22T07:48:32.232Z,20.49
2023-05-22T07:52:51.339Z,20.27
2023-05-22T07:57:09.378Z,20.01
2023-05-22T08:01:27.996Z,19.89
2023-05-22T08:05:47.099Z,19.55
2023-05-22T08:10:13.617Z,19.21
2023-05-22T08:14:31.485Z,18.97
2023-05-22T08:18:50.008Z,19.41
2023-05-22T08:23:08.055Z,19.62
2023-05-22T08:27:25.710Z,19.80
2023-05-22T08:31:43.935Z,20.35
2023-05-22T08:36:02.929Z,20.37
2023-05-22T08:40:20.925Z,20.42
2023-05-22T08:44:38.884Z,20.42
2023-05-22T08:48:59.873Z,21.10
2023-05-22T08:53:24.184Z,21.17
2023-05-22T08:57:43.965Z,21.83
2023-05-22T09:02:03.223Z,22.26
2023-05-22T09:06:21.907Z,22.68
2023-05-22T09:10:40.640Z,22.55
2023-05-22T09:15:10.761Z,22.82
2023-05-22T09:19:30.997Z,23.43
2023-05-22T09:23:51.182Z,23.10
2023-05-22T09:28:09.184Z,23.69
2023-05-22T09:32:30.001Z,24.36
2023-05-22T09:36:50.799Z,24.17
2023-05-22T09:41:08.872Z,24.74
2023-05-22T09:45:28.151Z,24.82
2023-05-22T09:49:46.483Z,26.13
2023-05-22T09:54:07.870Z,25.57
2023-05-22T09:58:31.002Z,26.18
2023-05-22T10:02:54.797Z,26.26
2023-05-22T10:07:12.635Z,26.28
2023-05-22T10:11:32.577Z,25.84
2023-05-22T10:15:52.437Z,25.59
2023-05-22T10:20:11.156Z,26.52
2023-05-22T10:24:30.982Z,28.49
2023-05-22T10:29:17.532Z,29.39
2023-05-22T10:33:48.323Z,28.84
2023-05-22T10:38:55.523Z,29.37
2023-05-22T10:43:13.874Z,28.52
2023-05-22T10:47:34.837Z,28.31
2023-05-22T10:51:57.420Z,29.31
2023-05-22T10:56:17.396Z,29.73
2023-05-22T11:00:39.402Z,31.02
2023-05-22T11:05:18.991Z,30.38
2023-05-22T11:09:49.041Z,31.53
2023-05-22T11:14:06.812Z,33.59
2023-05-22T11:18:28.558Z,34.39
2023-05-22T11:23:06.171Z,35.20
2023-05-22T11:27:24.713Z,34.05
2023-05-22T11:31:42.346Z,32.65
2023-05-22T11:36:02.661Z,34.70
2023-05-22T11:40:22.749Z,36.33
2023-05-22T11:44:42.107Z,33.05
2023-05-22T11:48:59.947Z,33.83
2023-05-22T11:53:18.946Z,33.15
2023-05-22T11:57:37.582Z,38.28
2023-05-22T12:01:55.544Z,38.02
2023-05-22T12:06:15.774Z,40.61
2023-05-22T12:10:34.813Z,39.00
2023-05-22T12:14:53.746Z,37.33
2023-05-22T12:19:12.662Z,38.46
2023-05-22T12:23:32.734Z,36.61
2023-05-22T12:27:51.668Z,34.96
2023-05-22T12:32:13.258Z,36.67
2023-05-22T12:36:43.053Z,34.45
2023-05-22T12:41:00.781Z,32.25
2023-05-22T12:45:19.863Z,31.40
2023-05-22T12:49:37.386Z,31.33
2023-05-22T12:53:56.409Z,32.43
2023-05-22T12:58:14.278Z,36.47
2023-05-22T13:02:32.378Z,38.21
2023-05-22T13:06:51.114Z,36.84
2023-05-22T13:11:09.525Z,35.77
2023-05-22T13:15:31.404Z,33.15
2023-05-22T13:19:49.205Z,31.54
2023-05-22T13:24:08.485Z,30.48
2023-05-22T13:28:25.990Z,29.48
2023-05-22T13:32:43.519Z,30.27
2023-05-22T13:37:02.116Z,32.50
2023-05-22T13:41:21.318Z,37.37
2023-05-22T13:45:42.054Z,41.53
2023-05-22T13:50:01.293Z,39.75
2023-05-22T13:54:19.099Z,40.88
2023-05-22T13:58:36.806Z,42.07
2023-05-22T14:02:56.460Z,42.73
2023-05-22T14:07:18.931Z,44.25
2023-05-22T14:11:36.538Z,41.32
2023-05-22T14:15:55.766Z,47.00
2023-05-22T14:20:13.409Z,43.08
2023-05-22T14:24:32.189Z,41.97
2023-05-22T14:28:50.098Z,42.31
2023-05-22T14:33:08.115Z,42.53
2023-05-22T14:37:26.651Z,40.29
2023-05-22T14:41:44.185Z,35.62
2023-05-22T14:46:02.083Z,35.14
2023-05-22T14:50:20.957Z,34.70
2023-05-22T14:54:39.530Z,40.54
2023-05-22T14:58:58.771Z,40.98
2023-05-22T15:03:17.051Z,41.22
2023-05-22T15:07:43.900Z,42.14
2023-05-22T15:12:03.450Z,41.30
2023-05-22T15:16:22.801Z,40.71
2023-05-22T15:20:41.956Z,41.19
2023-05-22T15:25:08.370Z,43.37
2023-05-22T15:29:26.533Z,44.76
2023-05-22T15:33:44.148Z,43.66
2023-05-22T15:38:03.961Z,40.87
2023-05-22T15:42:22.170Z,38.72
2023-05-22T15:46:41.429Z,38.48
2023-05-22T15:50:59.815Z,36.15
2023-05-22T15:55:17.917Z,36.47
2023-05-22T15:59:35.542Z,35.08
2023-05-22T16:03:55.014Z,35.72
2023-05-22T16:08:17.182Z,32.37
2023-05-22T16:12:34.770Z,28.84
2023-05-22T16:16:52.484Z,28.11
2023-05-22T16:21:10.058Z,28.59
2023-05-22T16:25:28.864Z,27.98
2023-05-22T16:29:46.739Z,29.45
2023-05-22T16:34:06.307Z,28.76
2023-05-22T16:38:24.394Z,27.86
2023-05-22T16:42:42.500Z,26.38
2023-05-22T16:47:00.130Z,27.33
2023-05-22T16:51:18.625Z,27.49
2023-05-22T16:55:37.115Z,28.01
2023-05-22T16:59:57.728Z,27.55
2023-05-22T17:04:16.708Z,25.94
2023-05-22T17:08:34.314Z,24.85
2023-05-22T17:12:53.504Z,23.86
2023-05-22T17:17:11.302Z,22.95
2023-05-22T17:21:29.516Z,21.99
2023-05-22T17:25:48.336Z,21.23
2023-05-22T17:30:07.882Z,20.22
2023-05-22T17:34:26.258Z,19.53
2023-05-22T17:38:43.813Z,19.00
2023-05-22T17:43:02.909Z,18.35
2023-05-22T17:47:20.581Z,17.83
2023-05-22T17:51:39.562Z,17.26
2023-05-22T17:55:59.068Z,16.81
2023-05-22T18:00:18.722Z,16.31
2023-05-22T18:04:37.564Z,15.78
2023-05-22T18:08:57.398Z,15.35
2023-05-22T18:13:15.157Z,14.91
2023-05-22T18:17:34.452Z,14.57
2023-05-22T18:21:53.791Z,14.18
2023-05-22T18:26:11.964Z,13.83
2023-05-22T18:30:30.030Z,13.44
2023-05-22T18:34:49.703Z,13.09
2023-05-22T18:39:09.070Z,12.80
2023-05-22T18:43:29.032Z,12.57
2023-05-22T18:47:48.161Z,12.28
2023-05-22T18:52:06.767Z,12.01
2023-05-22T18:56:24.825Z,11.73
2023-05-22T19:00:42.876Z,11.56
2023-05-22T19:05:01.339Z,11.35
2023-05-22T19:09:19.541Z,11.12
2023-05-22T19:13:38.343Z,10.94
2023-05-22T19:17:56.928Z,10.84
2023-05-22T19:22:17.960Z,10.65
2023-05-22T19:26:37.552Z,10.53
2023-05-22T19:30:58.710Z,10.43
2023-05-22T19:35:17.768Z,10.36
2023-05-22T19:39:36.381Z,10.40
2023-05-22T19:43:56.365Z,10.43
2023-05-22T19:48:16.158Z,10.44
2023-05-22T19:52:34.800Z,10.27
2023-05-22T19:56:53.253Z,10.10
2023-05-22T20:01:11.825Z,10.02
2023-05-22T20:05:30.906Z,9.99
2023-05-22T20:09:48.485Z,10.05
2023-05-22T20:14:08.383Z,9.98
2023-05-22T20:18:25.670Z,9.92
2023-05-22T20:22:44.028Z,10.03
2023-05-22T20:27:04.960Z,10.10
2023-05-22T20:31:23.270Z,9.97
2023-05-22T20:35:41.173Z,9.92
2023-05-22T20:40:04.656Z,9.82
2023-05-22T20:44:25.388Z,9.68
2023-05-22T20:48:49.672Z,9.54
2023-05-22T20:53:07.827Z,9.46
2023-05-22T20:57:25.749Z,9.43
2023-05-22T21:01:44.244Z,9.77
2023-05-22T21:06:01.837Z,9.87
2023-05-22T21:10:20.245Z,9.65
2023-05-22T21:14:39.080Z,9.40
2023-05-22T21:18:58.297Z,9.33
2023-05-22T21:23:16.056Z,9.37
2023-05-22T21:27:34.512Z,9.37
2023-05-22T21:31:52.256Z,9.32
2023-05-22T21:36:11.100Z,9.19
2023-05-22T21:40:28.646Z,9.13
2023-05-22T21:44:46.863Z,9.02
2023-05-22T21:49:06.684Z,9.01
2023-05-22T21:53:26.171Z,9.05
2023-05-22T21:57:47.172Z,9.42
2023-05-22T22:02:05.150Z,9.42
2023-05-22T22:06:23.285Z,9.60
2023-05-22T22:10:41.016Z,9.82
2023-05-22T22:14:59.485Z,9.82
2023-05-22T22:19:17.635Z,9.74
2023-05-22T22:23:35.286Z,9.57
2023-05-22T22:27:54.036Z,9.54
2023-05-22T22:32:13.403Z,9.54
2023-05-22T22:36:32.373Z,9.48
2023-05-22T22:40:49.897Z,9.48
2023-05-22T22:45:11.054Z,9.58
2023-05-22T22:49:28.731Z,9.51
2023-05-22T22:53:46.769Z,9.51
2023-05-22T22:58:04.684Z,9.54
2023-05-22T23:02:22.950Z,9.53
2023-05-22T23:06:42.740Z,9.57
2023-05-22T23:11:00.641Z,9.55
2023-05-22T23:15:19.516Z,9.53
2023-05-22T23:19:37.040Z,9.60
2023-05-22T23:23:56.177Z,9.87
2023-05-22T23:28:13.744Z,9.80
2023-05-22T23:32:31.853Z,9.82
2023-05-22T23:36:50.384Z,9.81
2023-05-22T23:41:07.921Z,9.60
2023-05-22T23:45:25.692Z,9.51
2023-05-22T23:49:43.281Z,9.44
2023-05-22T23:54:02.032Z,9.24
2023-05-22T23:58:21.589Z,9.09
